»·PEaware :: N292MC KUDD-KVNY

N292MC :: KUDD-KVNY

FLIGHT INFORMATION

Flight Status: Arrived
Operator: Privately registered:
United States
More flights under this callsign
Pilot: Maurice C. (12314)
Aircraft: Unknown
(KODI)
More flights by this aircraft type
Origin: KUDD Bermuda Dunes
United States
Destination: KVNY Van Nuys
United States
More flights between these airports :: More routes between these airports
Route: BALDI HAPPE HDF PDZ DARTS
File this flight plan on PilotEdge
Remarks: ALPHABET CHALLENGE
Altitude:
(Current/Filed)
6,500ft
Speed:
(Current/Filed)
180kts
Departed: 30-Mar-20 02:00 PM
Arrived: 30-Mar-20 02:47 PM
Distance/Time
Traveled:
113nm/0:47
Distance/Time
To Go:
Arrived

Flight Plot

Page will automatically refresh every two minutes.

Flight plan parsing failed; only flown route is shown


Map Options




Map Legend


Flown Route
Filed Route
Departure Airport
Arrival Airport
Navaid (VOR, NDB)
Fix

Horizontal Profiles

Position Reports

Time Latitude Longitude Heading Altitude Ground
Speed
30-Mar-20 13:42 33.745365 -116.269353 270 69ft 0kts
30-Mar-20 13:43 33.745365 -116.269353 270 69ft 0kts
30-Mar-20 13:44 33.745365 -116.269353 270 69ft 0kts
30-Mar-20 13:45 33.745365 -116.269353 270 69ft 0kts
30-Mar-20 13:46 33.745365 -116.269353 270 69ft 0kts
30-Mar-20 13:47 33.745365 -116.269353 270 69ft 0kts
30-Mar-20 13:48 33.745365 -116.269353 270 69ft 0kts
30-Mar-20 13:49 33.745366 -116.269356 270 69ft 0kts
30-Mar-20 13:50 33.745366 -116.269356 270 69ft 0kts
30-Mar-20 13:51 33.745366 -116.269356 270 69ft 0kts
30-Mar-20 13:52 33.745366 -116.269356 270 69ft 0kts
30-Mar-20 13:53 33.745366 -116.269356 270 69ft 0kts
30-Mar-20 13:54 33.745562 -116.269444 42 69ft 0kts
30-Mar-20 13:55 33.745775 -116.269492 305 69ft 1kts
30-Mar-20 13:56 33.747619 -116.274074 296 69ft 20kts
30-Mar-20 13:57 33.750192 -116.280501 297 69ft 19kts
30-Mar-20 13:58 33.751078 -116.282342 21 69ft 1kts
30-Mar-20 13:59 33.743044 -116.262345 115 563ft 130kts
30-Mar-20 14:00 33.708319 -116.256515 233 1432ft 165kts
30-Mar-20 14:01 33.711859 -116.309287 291 2166ft 159kts
30-Mar-20 14:02 33.728934 -116.357340 281 2892ft 153kts
30-Mar-20 14:03 33.703986 -116.394949 219 3694ft 153kts
30-Mar-20 14:04 33.680941 -116.439405 245 4633ft 162kts
30-Mar-20 14:05 33.660829 -116.488542 242 5505ft 164kts
30-Mar-20 14:06 33.660370 -116.540729 281 6440ft 157kts
30-Mar-20 14:07 33.665204 -116.590442 276 7503ft 160kts
30-Mar-20 14:08 33.670291 -116.649088 277 7169ft 183kts
30-Mar-20 14:09 33.680482 -116.704946 284 6917ft 169kts
30-Mar-20 14:10 33.691540 -116.759561 285 6707ft 169kts
30-Mar-20 14:11 33.702527 -116.814343 284 6500ft 164kts
30-Mar-20 14:12 33.712936 -116.867268 284 6503ft 162kts
30-Mar-20 14:13 33.723482 -116.920110 285 6490ft 162kts
30-Mar-20 14:14 33.733750 -116.972516 285 6498ft 161kts
30-Mar-20 14:15 33.744228 -117.025174 283 6491ft 163kts
30-Mar-20 14:16 33.754514 -117.077878 286 6523ft 160kts
30-Mar-20 14:17 33.764768 -117.130418 283 6501ft 161kts
30-Mar-20 14:18 33.775126 -117.183042 286 6486ft 162kts
30-Mar-20 14:19 33.794448 -117.231167 299 6495ft 159kts
30-Mar-20 14:20 33.814249 -117.278978 298 6492ft 159kts
30-Mar-20 14:21 33.833941 -117.326681 298 6500ft 159kts
30-Mar-20 14:22 33.853632 -117.374449 298 6495ft 159kts
30-Mar-20 14:23 33.873332 -117.422152 298 6494ft 159kts
30-Mar-20 14:24 33.894080 -117.472428 298 6488ft 179kts
30-Mar-20 14:25 33.916488 -117.526929 298 6488ft 182kts
30-Mar-20 14:26 33.935173 -117.583805 293 6487ft 183kts
30-Mar-20 14:28 33.953809 -117.641273 293 6482ft 183kts
30-Mar-20 14:29 33.972220 -117.698063 292 6503ft 183kts
30-Mar-20 14:30 33.990660 -117.755096 292 6501ft 183kts
30-Mar-20 14:31 34.009245 -117.812591 292 6495ft 183kts
30-Mar-20 14:32 34.027802 -117.870162 292 6493ft 183kts
30-Mar-20 14:33 34.046215 -117.927409 292 6487ft 183kts
30-Mar-20 14:34 34.064583 -117.984613 292 6482ft 184kts
30-Mar-20 14:35 34.082810 -118.041351 293 6469ft 184kts
30-Mar-20 14:36 34.100552 -118.096963 292 6467ft 184kts
30-Mar-20 14:37 34.116082 -118.145449 292 6038ft 181kts
30-Mar-20 14:38 34.133322 -118.198289 293 5388ft 176kts
30-Mar-20 14:39 34.150624 -118.252108 292 4702ft 176kts
30-Mar-20 14:40 34.164851 -118.304516 286 4208ft 174kts
30-Mar-20 14:41 34.175935 -118.350735 286 3357ft 122kts
30-Mar-20 14:42 34.184342 -118.385236 286 2768ft 114kts
30-Mar-20 14:43 34.192997 -118.420639 286 2485ft 116kts
30-Mar-20 14:44 34.204487 -118.458820 300 2003ft 113kts
30-Mar-20 14:45 34.230033 -118.472364 357 1693ft 97kts
30-Mar-20 14:45 34.227738 -118.491916 177 1259ft 93kts
30-Mar-20 14:47 34.210384 -118.490314 138 780ft 6kts
30-Mar-20 14:48 34.210242 -118.489695 86 780ft 0kts
30-Mar-20 14:48 34.210253 -118.489477 85 780ft 10kts
30-Mar-20 14:49 34.210223 -118.487462 148 780ft 9kts
30-Mar-20 14:51 34.209981 -118.486663 94 780ft 0kts
30-Mar-20 14:51 34.209981 -118.486663 94 780ft 0kts

Navigation Log

Ident Type
Flight plan parsing failed, navigation log unavailable